This is the latest recevied weather packets stored in our database for station/object SP6PGH-13. If no packets are shown the sender has not sent any weather packets the latest 10 day(s).
| Time | Temp. | Humidity | Pressure | Rain* | Wind** | Luminosity | Snow |
|---|---|---|---|---|---|---|---|
| 1788470705 | 19.44° C | 70% | 1002 hPa | - | - | - | - |
| 1788469804 | 19.44° C | 69% | 1002 hPa | - | - | - | - |
| 1788468903 | 19.44° C | 69% | 1002.2 hPa | - | - | - | - |
| 1788468001 | 20° C | 68% | 1002.3 hPa | - | - | - | - |
| 1788467100 | 20° C | 66% | 1002.2 hPa | - | - | - | - |
| 1788463496 | 17.78° C | 71% | 1002 hPa | - | - | - | - |
| 1788449980 | 22.78° C | 50% | 1002.6 hPa | - | - | 82 W/m² | - |
| 1788448179 | 23.89° C | 48% | 1002.8 hPa | - | - | 240 W/m² | - |
| 1788447277 | 22.78° C | 52% | 1002.9 hPa | - | - | 178 W/m² | - |
| 1788444574 | 22.78° C | 50% | 1003.3 hPa | - | - | 197 W/m² | - |
| 1788441870 | 23.33° C | 50% | 1003.5 hPa | - | - | 342 W/m² | - |
| 1788438267 | 22.78° C | 53% | 1003.9 hPa | - | - | 344 W/m² | - |
| 1788437365 | 22.78° C | 52% | 1003.9 hPa | - | - | 376 W/m² | - |
| 1788434663 | 22.22° C | 51% | 1004.4 hPa | - | - | 391 W/m² | - |
| 1788433761 | 22.22° C | 52% | 1004.5 hPa | - | - | 356 W/m² | - |
| 1788432860 | 22.22° C | 58% | 1004.7 hPa | - | - | 338 W/m² | - |
| 1788431960 | 22.22° C | 56% | 1004.7 hPa | - | - | 343 W/m² | - |
| 1788431059 | 22.22° C | 57% | 1004.8 hPa | - | - | 453 W/m² | - |
| 1788430157 | 21.67° C | 61% | 1004.9 hPa | - | - | 349 W/m² | - |
| 1788429256 | 21.67° C | 63% | 1005 hPa | - | - | 400 W/m² | - |
| 1788428355 | 22.78° C | 64% | 1005 hPa | - | - | 609 W/m² | - |
| 1788427454 | 22.22° C | 64% | 1005.2 hPa | - | - | 526 W/m² | - |
| 1788426553 | 21.11° C | 64% | 1005.2 hPa | - | - | 408 W/m² | - |
| 1788425652 | 21.67° C | 64% | 1005.2 hPa | - | - | 514 W/m² | - |
| 1788424751 | 21.67° C | 65% | 1005.4 hPa | - | - | 471 W/m² | - |
* Rain since midnight (hover to see other rain measurements)
** Current wind speed in m/s (hover to see current wind gust speed)